Time;durP1;ratioP1;P1;durP2;ratioP2;P2;SDS_P1;SDS_P2;PMS_P1;PMS_P2;Temp;Humidity;BMP_temperature;BMP_pressure;BME280_temperature;BME280_humidity;BME280_pressure;Samples;Min_cycle;Max_cycle;Signal;HPM_P1;HPM_P2
2023/08/25 00:00:38;;;;;;;21.02;9.98;;;;;;;18.74;100.00;100756.88;5094538;28;20072;-75
2023/08/25 00:03:04;;;;;;;21.90;10.18;;;;;;;18.69;100.00;100763.69;5070843;28;20031;-77
2023/08/25 00:05:29;;;;;;;20.17;9.50;;;;;;;18.68;100.00;100763.84;5095496;28;20016;-76
2023/08/25 00:07:55;;;;;;;18.98;9.68;;;;;;;18.62;100.00;100772.69;5104278;28;20368;-76
2023/08/25 00:10:22;;;;;;;23.60;10.15;;;;;;;18.56;100.00;100770.66;5093544;28;20019;-77
2023/08/25 00:12:48;;;;;;;23.08;9.50;;;;;;;18.51;100.00;100772.00;5092202;28;20024;-76
2023/08/25 00:15:13;;;;;;;20.35;9.55;;;;;;;18.47;100.00;100770.63;5090791;28;20031;-76
2023/08/25 00:17:39;;;;;;;20.27;8.93;;;;;;;18.44;100.00;100764.66;5111731;28;20027;-77
2023/08/25 00:20:09;;;;;;;23.40;10.90;;;;;;;18.39;100.00;100776.06;5103880;28;20024;-77
2023/08/25 00:22:34;;;;;;;19.60;9.13;;;;;;;18.36;100.00;100778.22;5095776;28;20035;-70
2023/08/25 00:25:00;;;;;;;19.83;9.70;;;;;;;18.32;100.00;100772.28;5123787;28;20027;-70
2023/08/25 00:27:26;;;;;;;19.90;9.98;;;;;;;18.30;100.00;100771.59;5120982;28;20109;-71
2023/08/25 00:29:53;;;;;;;20.60;9.43;;;;;;;18.28;100.00;100770.91;5109548;28;20030;-70
2023/08/25 00:32:18;;;;;;;21.45;9.85;;;;;;;18.25;100.00;100776.69;5109280;28;20102;-70
2023/08/25 00:34:43;;;;;;;20.95;11.57;;;;;;;18.26;100.00;100790.13;5106928;28;20027;-70
2023/08/25 00:37:09;;;;;;;22.67;10.40;;;;;;;18.22;100.00;100790.63;5121075;28;20016;-70
2023/08/25 00:39:34;;;;;;;20.77;9.88;;;;;;;18.17;100.00;100786.50;5105505;28;20023;-70
2023/08/25 00:41:59;;;;;;;18.88;8.85;;;;;;;18.13;100.00;100787.84;5118611;28;20036;-71
2023/08/25 00:44:25;;;;;;;22.08;8.45;;;;;;;18.10;100.00;100790.91;5115385;28;20039;-71
2023/08/25 00:46:50;;;;;;;21.10;9.25;;;;;;;18.07;100.00;100780.34;5116591;28;20036;-70
2023/08/25 00:49:16;;;;;;;20.00;9.10;;;;;;;18.06;100.00;100780.53;5115628;28;20081;-70
2023/08/25 00:51:42;;;;;;;20.05;9.48;;;;;;;18.02;100.00;100782.69;5106171;28;20043;-70
2023/08/25 00:54:07;;;;;;;20.35;9.40;;;;;;;17.98;100.00;100776.75;5124640;28;20020;-70
2023/08/25 00:56:34;;;;;;;22.33;9.63;;;;;;;17.97;100.00;100774.19;5120181;28;20487;-70
2023/08/25 00:58:59;;;;;;;19.17;8.73;;;;;;;17.94;100.00;100767.19;5120469;28;20430;-70
2023/08/25 01:01:25;;;;;;;20.85;10.10;;;;;;;17.96;100.00;100764.31;5112350;28;20016;-70
2023/08/25 01:03:52;;;;;;;21.50;10.23;;;;;;;17.94;100.00;100779.97;5105824;28;20050;-71
2023/08/25 01:06:17;;;;;;;21.73;10.25;;;;;;;17.93;100.00;100773.66;5101770;28;20027;-71
2023/08/25 01:08:43;;;;;;;20.45;10.18;;;;;;;17.92;100.00;100776.53;5120494;28;20032;-70
2023/08/25 01:11:08;;;;;;;21.65;10.30;;;;;;;17.90;100.00;100773.13;5118539;28;20395;-70
2023/08/25 01:14:06;;;;;;;23.33;11.60;;;;;;;17.92;100.00;100771.97;5122392;28;20039;-71
2023/08/25 01:16:52;;;;;;;22.35;10.65;;;;;;;17.94;100.00;100769.09;5118468;28;20034;-71
2023/08/25 01:19:54;;;;;;;22.67;11.65;;;;;;;17.96;100.00;100762.44;5120909;28;20053;-70
2023/08/25 01:22:34;;;;;;;22.08;11.25;;;;;;;17.94;100.00;100759.03;5107995;28;20028;-70
2023/08/25 01:25:32;;;;;;;21.50;9.55;;;;;;;17.92;100.00;100768.38;5121993;28;20031;-70
2023/08/25 01:28:01;;;;;;;21.90;9.55;;;;;;;17.89;100.00;100765.94;5117008;28;20118;-71
2023/08/25 01:30:31;;;;;;;19.17;8.57;;;;;;;17.86;100.00;100760.84;5114503;28;20024;-70
2023/08/25 01:33:00;;;;;;;19.92;8.77;;;;;;;17.86;100.00;100758.13;5122617;28;20023;-70
2023/08/25 01:35:50;;;;;;;19.65;9.07;;;;;;;17.85;100.00;100759.13;5120295;28;20080;-71
2023/08/25 01:38:36;;;;;;;19.23;9.18;;;;;;;17.85;100.00;100753.69;5126389;28;20062;-71
2023/08/25 01:41:18;;;;;;;20.00;9.10;;;;;;;17.79;100.00;100761.50;5118788;28;20027;-70
2023/08/25 01:43:47;;;;;;;21.35;9.15;;;;;;;17.81;100.00;100755.91;5105929;28;20032;-71
2023/08/25 01:46:15;;;;;;;20.48;8.65;;;;;;;17.84;100.00;100758.28;5125275;28;20502;-71
2023/08/25 01:48:43;;;;;;;17.77;8.20;;;;;;;17.82;100.00;100750.28;5118686;28;20043;-72
2023/08/25 01:51:10;;;;;;;18.73;8.02;;;;;;;17.84;100.00;100754.72;5127331;28;20024;-70
2023/08/25 01:53:36;;;;;;;18.55;8.38;;;;;;;17.85;100.00;100748.25;5107192;28;20023;-70
2023/08/25 01:56:01;;;;;;;20.67;9.50;;;;;;;17.88;100.00;100745.22;5125469;28;20079;-70
2023/08/25 01:58:28;;;;;;;22.00;10.77;;;;;;;17.90;100.00;100743.22;5103545;28;20031;-70
2023/08/25 02:00:53;;;;;;;22.67;10.00;;;;;;;17.92;100.00;100741.19;5117052;28;20027;-71
2023/08/25 02:03:18;;;;;;;22.65;11.63;;;;;;;17.94;100.00;100740.00;5126875;28;20015;-70
2023/08/25 02:05:44;;;;;;;19.95;10.20;;;;;;;17.97;100.00;100736.13;5125969;28;20039;-71
2023/08/25 02:08:09;;;;;;;22.10;12.20;;;;;;;18.00;100.00;100738.50;5106278;28;20023;-70
2023/08/25 02:10:34;;;;;;;22.77;12.98;;;;;;;17.98;100.00;100727.78;5125409;28;20032;-71
2023/08/25 02:13:00;;;;;;;23.80;12.50;;;;;;;18.00;100.00;100741.22;5116040;28;20032;-71
2023/08/25 02:15:25;;;;;;;25.08;11.32;;;;;;;18.01;100.00;100732.06;5095393;28;20487;-71
2023/08/25 02:17:50;;;;;;;25.27;12.52;;;;;;;18.04;100.00;100729.00;5111653;28;20128;-71
2023/08/25 02:20:16;;;;;;;22.05;11.73;;;;;;;18.04;100.00;100723.56;5114383;28;20103;-70
2023/08/25 02:22:41;;;;;;;23.05;12.38;;;;;;;18.07;100.00;100722.38;5112771;28;20102;-71
2023/08/25 02:25:07;;;;;;;22.50;12.20;;;;;;;18.09;100.00;100731.22;5105666;28;20032;-70
2023/08/25 02:27:32;;;;;;;23.35;11.43;;;;;;;18.10;100.00;100722.91;5113404;28;20035;-71
2023/08/25 02:29:57;;;;;;;21.55;11.32;;;;;;;18.12;100.00;100718.13;5114283;28;20024;-70
2023/08/25 02:32:23;;;;;;;22.23;11.23;;;;;;;18.13;100.00;100719.84;5113259;28;20037;-71
2023/08/25 02:34:48;;;;;;;24.40;13.68;;;;;;;18.15;100.00;100717.81;5114640;28;20106;-71
2023/08/25 02:37:13;;;;;;;26.27;13.50;;;;;;;18.19;100.00;100701.19;5112492;28;20066;-70
2023/08/25 02:39:39;;;;;;;24.02;13.73;;;;;;;18.22;100.00;100695.41;5111922;28;20047;-71
2023/08/25 02:42:04;;;;;;;25.73;15.20;;;;;;;18.24;100.00;100693.34;5095067;28;20517;-70
2023/08/25 02:44:29;;;;;;;22.90;11.85;;;;;;;18.25;100.00;100695.06;5111564;28;20440;-71
2023/08/25 02:46:55;;;;;;;25.52;15.02;;;;;;;18.27;100.00;100693.03;5094643;28;20058;-71
2023/08/25 02:49:21;;;;;;;27.02;15.63;;;;;;;18.27;100.00;100690.31;5094879;28;20406;-71
2023/08/25 02:51:46;;;;;;;28.42;16.95;;;;;;;18.30;100.00;100687.25;5113166;28;20146;-71
2023/08/25 02:54:11;;;;;;;24.95;15.70;;;;;;;18.32;100.00;100696.09;5112777;28;20023;-73
2023/08/25 02:56:36;;;;;;;29.33;18.25;;;;;;;18.34;100.00;100684.00;5109731;27;20503;-71
2023/08/25 02:59:02;;;;;;;27.50;17.48;;;;;;;18.36;100.00;100675.72;5111646;28;20390;-71
2023/08/25 03:01:27;;;;;;;34.22;18.13;;;;;;;18.39;100.00;100679.94;5092961;28;20481;-70
2023/08/25 03:03:55;;;;;;;28.85;17.90;;;;;;;18.42;100.00;100668.72;5111867;28;20455;-71
2023/08/25 03:06:20;;;;;;;28.02;16.67;;;;;;;18.41;100.00;100665.16;5111192;28;20031;-71
2023/08/25 03:08:45;;;;;;;28.33;18.30;;;;;;;18.42;100.00;100666.88;5110983;28;20497;-70
2023/08/25 03:11:11;;;;;;;31.73;18.85;;;;;;;18.44;100.00;100664.81;5111737;28;20043;-71
2023/08/25 03:13:36;;;;;;;27.95;18.30;;;;;;;18.47;100.00;100656.31;5094112;28;20380;-71
2023/08/25 03:16:02;;;;;;;31.70;19.05;;;;;;;18.47;100.00;100661.75;5111105;28;20074;-71
2023/08/25 03:18:27;;;;;;;28.95;19.15;;;;;;;18.47;100.00;100658.19;5093662;28;20474;-71
2023/08/25 03:20:53;;;;;;;29.92;18.30;;;;;;;18.46;100.00;100654.63;5096591;28;20035;-71
2023/08/25 03:23:19;;;;;;;30.50;16.52;;;;;;;18.48;100.00;100652.59;5111895;28;20024;-78
2023/08/25 03:25:44;;;;;;;28.40;18.98;;;;;;;18.47;100.00;100650.88;5093697;28;20015;-77
2023/08/25 03:28:09;;;;;;;27.73;17.83;;;;;;;18.49;100.00;100647.97;5089267;28;20087;-76
2023/08/25 03:30:35;;;;;;;32.78;18.30;;;;;;;18.49;100.00;100643.41;5111786;28;20474;-78
2023/08/25 03:33:00;;;;;;;27.20;18.02;;;;;;;18.50;100.00;100650.53;5111201;28;20020;-76
2023/08/25 03:35:26;;;;;;;29.48;17.95;;;;;;;18.51;100.00;100648.69;5111213;28;20031;-77
2023/08/25 03:37:51;;;;;;;31.75;19.27;;;;;;;18.51;100.00;100641.34;5090880;28;20034;-77
2023/08/25 03:40:19;;;;;;;26.33;17.85;;;;;;;18.51;100.00;100635.91;5107577;28;20413;-77
2023/08/25 03:42:44;;;;;;;25.88;17.40;;;;;;;18.51;100.00;100635.91;5111233;28;20034;-77
2023/08/25 03:45:10;;;;;;;30.63;17.92;;;;;;;18.50;100.00;100625.19;5111761;28;20016;-76
2023/08/25 03:47:35;;;;;;;29.50;18.85;;;;;;;18.50;100.00;100617.88;5108949;28;20475;-77
2023/08/25 03:50:00;;;;;;;28.27;18.40;;;;;;;18.51;100.00;100622.31;5105232;28;20100;-76
2023/08/25 03:52:26;;;;;;;28.42;18.00;;;;;;;18.51;100.00;100633.19;5092740;28;20016;-77
2023/08/25 03:54:51;;;;;;;27.13;17.48;;;;;;;18.51;100.00;100625.03;5093834;28;20085;-78
2023/08/25 03:57:16;;;;;;;29.77;18.50;;;;;;;18.51;100.00;100629.63;5092364;28;20496;-77
2023/08/25 03:59:41;;;;;;;26.65;16.52;;;;;;;18.52;100.00;100631.31;5091807;28;20093;-77
2023/08/25 04:02:07;;;;;;;28.02;18.15;;;;;;;18.53;100.00;100635.75;5094641;28;20015;-77
2023/08/25 04:04:32;;;;;;;30.30;17.25;;;;;;;18.52;100.00;100625.88;5111869;28;20056;-77
2023/08/25 04:06:58;;;;;;;28.23;18.50;;;;;;;18.52;100.00;100620.44;5090182;28;20024;-76
2023/08/25 04:09:23;;;;;;;26.52;17.35;;;;;;;18.51;100.00;100619.59;5110009;28;20028;-77
2023/08/25 04:11:48;;;;;;;28.85;17.15;;;;;;;18.51;100.00;100625.03;5094334;28;20356;-77
2023/08/25 04:14:14;;;;;;;27.38;18.30;;;;;;;18.52;100.00;100620.44;5109260;28;20114;-77
2023/08/25 04:16:39;;;;;;;27.73;18.20;;;;;;;18.51;100.00;100625.03;5093843;28;20131;-77
2023/08/25 04:19:05;;;;;;;28.90;18.38;;;;;;;18.51;100.00;100625.03;5112574;28;20031;-77
2023/08/25 04:21:30;;;;;;;29.23;17.67;;;;;;;18.51;100.00;100611.41;5110839;28;20023;-76
2023/08/25 04:23:55;;;;;;;27.52;17.50;;;;;;;18.50;100.00;100617.88;5103067;28;20028;-77
2023/08/25 04:26:21;;;;;;;28.67;19.08;;;;;;;18.49;100.00;100613.47;5092546;28;20046;-77
2023/08/25 04:28:46;;;;;;;28.67;17.83;;;;;;;18.48;100.00;100617.22;5096290;28;20073;-77
2023/08/25 04:31:11;;;;;;;29.05;19.05;;;;;;;18.45;100.00;100620.28;5093012;28;20134;-77
2023/08/25 04:33:37;;;;;;;28.00;17.00;;;;;;;18.44;100.00;100610.41;5099262;28;20462;-70
2023/08/25 04:36:03;;;;;;;29.60;18.45;;;;;;;18.42;100.00;100619.75;5094020;28;20114;-70
2023/08/25 04:38:28;;;;;;;31.88;17.90;;;;;;;18.41;100.00;100618.06;5092730;28;20019;-71
2023/08/25 04:40:53;;;;;;;31.17;18.27;;;;;;;18.42;100.00;100615.19;5093426;28;20063;-71
2023/08/25 04:43:19;;;;;;;30.05;17.75;;;;;;;18.41;100.00;100618.91;5103872;28;20028;-70
2023/08/25 04:45:44;;;;;;;28.08;18.30;;;;;;;18.41;100.00;100621.63;5089561;28;20035;-71
2023/08/25 04:48:09;;;;;;;27.83;17.55;;;;;;;18.44;100.00;100626.72;5106653;28;20370;-70
2023/08/25 04:50:35;;;;;;;28.02;19.17;;;;;;;18.43;100.00;100619.56;5110199;28;20067;-71
2023/08/25 04:53:00;;;;;;;30.10;19.38;;;;;;;18.44;100.00;100613.13;5108843;28;20072;-70
2023/08/25 04:55:25;;;;;;;32.50;18.65;;;;;;;18.46;100.00;100621.13;5110091;28;20387;-71
2023/08/25 04:57:51;;;;;;;27.85;16.83;;;;;;;18.46;100.00;100610.22;5110811;28;20027;-70
2023/08/25 05:00:16;;;;;;;27.90;18.42;;;;;;;18.46;100.00;100605.66;5111363;28;20024;-70
2023/08/25 05:02:41;;;;;;;30.60;18.95;;;;;;;18.47;100.00;100595.63;5105793;28;20028;-71
2023/08/25 05:05:09;;;;;;;27.25;18.50;;;;;;;18.48;100.00;100597.31;5092560;28;20020;-70
2023/08/25 05:07:34;;;;;;;31.65;19.85;;;;;;;18.47;100.00;100596.44;5089551;28;20019;-71
2023/08/25 05:10:00;;;;;;;30.25;18.48;;;;;;;18.46;100.00;100589.34;5104540;28;20528;-71
2023/08/25 05:12:25;;;;;;;28.67;19.67;;;;;;;18.49;100.00;100596.28;5110004;28;20023;-70
2023/08/25 05:14:51;;;;;;;30.27;18.20;;;;;;;18.49;100.00;100597.16;5112366;28;20034;-70
2023/08/25 05:17:16;;;;;;;29.38;18.55;;;;;;;18.49;100.00;100594.44;5111705;28;20024;-71
2023/08/25 05:19:41;;;;;;;26.80;18.10;;;;;;;18.51;100.00;100600.53;5115369;28;20058;-70
2023/08/25 05:22:07;;;;;;;28.67;19.05;;;;;;;18.51;100.00;100603.25;5096892;28;20023;-70
2023/08/25 05:24:32;;;;;;;29.70;20.00;;;;;;;18.52;100.00;100595.94;5114934;28;20069;-70
2023/08/25 05:26:57;;;;;;;29.15;20.10;;;;;;;18.52;100.00;100599.53;5092506;28;20024;-71
2023/08/25 05:29:27;;;;;;;29.52;19.98;;;;;;;18.56;100.00;100610.06;5113290;28;20024;-70
2023/08/25 05:31:53;;;;;;;35.13;20.52;;;;;;;18.58;100.00;100617.03;5093478;28;20092;-71
2023/08/25 05:34:19;;;;;;;29.40;18.33;;;;;;;18.61;100.00;100607.66;5115528;28;20027;-70
2023/08/25 05:36:44;;;;;;;29.10;16.55;;;;;;;18.64;100.00;100596.47;5106751;28;20129;-71
2023/08/25 05:39:11;;;;;;;27.77;18.17;;;;;;;18.67;100.00;100590.66;5096440;28;20612;-71
2023/08/25 05:41:36;;;;;;;28.52;15.30;;;;;;;18.69;100.00;100592.19;5115525;28;20030;-70
2023/08/25 05:44:03;;;;;;;30.55;14.48;;;;;;;18.69;100.00;100585.88;5117888;28;20028;-70
2023/08/25 05:46:29;;;;;;;28.25;13.98;;;;;;;18.71;100.00;100586.56;5116765;28;20020;-71
2023/08/25 05:48:55;;;;;;;24.65;12.32;;;;;;;18.73;100.00;100583.66;5121771;28;20108;-70
2023/08/25 05:51:20;;;;;;;24.33;13.05;;;;;;;18.74;100.00;100586.25;5133464;28;20051;-70
2023/08/25 05:53:45;;;;;;;21.75;11.10;;;;;;;18.75;100.00;100582.47;5118809;28;20036;-70
2023/08/25 05:56:11;;;;;;;21.95;9.93;;;;;;;18.75;100.00;100579.75;5134638;27;20024;-73
2023/08/25 05:58:36;;;;;;;20.80;10.05;;;;;;;18.74;100.00;100578.06;5135742;28;20065;-69
2023/08/25 06:01:01;;;;;;;21.30;10.55;;;;;;;18.73;100.00;100579.09;5135379;28;20020;-71
2023/08/25 06:03:27;;;;;;;20.25;9.48;;;;;;;18.73;100.00;100575.50;5132020;28;20012;-70
2023/08/25 06:05:53;;;;;;;21.48;9.70;;;;;;;18.73;100.00;100573.66;5120617;28;20055;-72
2023/08/25 06:08:19;;;;;;;22.15;9.73;;;;;;;18.73;100.00;100562.75;5141304;27;20012;-72
2023/08/25 06:10:44;;;;;;;20.48;9.38;;;;;;;18.73;100.00;100561.88;5140384;27;20028;-70
2023/08/25 06:13:10;;;;;;;22.33;10.18;;;;;;;18.72;100.00;100561.03;5141122;28;20032;-71
2023/08/25 06:15:36;;;;;;;20.70;9.27;;;;;;;18.71;100.00;100575.66;5121956;28;20034;-72
2023/08/25 06:18:01;;;;;;;22.25;10.50;;;;;;;18.72;100.00;100563.75;5140081;27;20011;-71
2023/08/25 06:20:27;;;;;;;21.80;9.75;;;;;;;18.68;100.00;100576.88;5132391;27;20031;-71
2023/08/25 06:22:53;;;;;;;21.48;9.27;;;;;;;18.70;100.00;100590.31;5131421;27;20034;-71
2023/08/25 06:25:18;;;;;;;20.08;8.90;;;;;;;18.69;100.00;100580.44;5131965;28;20023;-69
2023/08/25 06:27:43;;;;;;;23.50;10.35;;;;;;;18.69;100.00;100588.63;5137417;28;20020;-72
2023/08/25 06:30:10;;;;;;;23.73;9.52;;;;;;;18.68;100.00;100603.25;5139208;27;20095;-71
2023/08/25 06:32:36;;;;;;;25.23;9.82;;;;;;;18.68;100.00;100597.78;5133248;28;20015;-70
2023/08/25 06:35:01;;;;;;;23.23;9.68;;;;;;;18.67;100.00;100596.94;5119459;28;20036;-71
2023/08/25 06:37:27;;;;;;;19.60;8.98;;;;;;;18.66;100.00;100597.13;5136235;27;20015;-74
2023/08/25 06:39:52;;;;;;;20.45;9.75;;;;;;;18.66;100.00;100584.34;5114561;28;20036;-76
2023/08/25 06:42:17;;;;;;;21.35;9.60;;;;;;;18.65;100.00;100581.81;5091333;28;20035;-78
2023/08/25 06:44:43;;;;;;;20.50;10.07;;;;;;;18.63;100.00;100581.16;5106568;28;20073;-74
2023/08/25 06:47:08;;;;;;;23.17;9.68;;;;;;;18.63;100.00;100589.31;5093313;28;20039;-75
2023/08/25 06:49:33;;;;;;;25.40;9.80;;;;;;;18.64;100.00;100580.13;5111326;28;20040;-73
2023/08/25 06:51:59;;;;;;;21.10;8.60;;;;;;;18.62;100.00;100555.78;5104001;28;20429;-76
2023/08/25 06:54:25;;;;;;;24.40;10.13;;;;;;;18.61;100.00;100564.13;5115038;28;20072;-76
2023/08/25 06:56:51;;;;;;;21.98;10.23;;;;;;;18.59;100.00;100539.78;5097229;28;20023;-76
2023/08/25 06:59:16;;;;;;;22.35;10.02;;;;;;;18.57;100.00;100522.81;5098777;28;20111;-77
2023/08/25 07:01:42;;;;;;;21.75;9.20;;;;;;;18.55;100.00;100505.81;5131331;28;20042;-77
2023/08/25 07:04:07;;;;;;;23.17;10.43;;;;;;;18.54;100.00;100514.13;5100368;28;20057;-77
2023/08/25 07:06:33;;;;;;;20.73;10.23;;;;;;;18.55;100.00;100521.25;5105164;28;20024;-76
2023/08/25 07:08:58;;;;;;;25.05;11.75;;;;;;;18.51;100.00;100537.94;5109728;28;20044;-76
2023/08/25 07:11:26;;;;;;;20.95;9.23;;;;;;;18.48;100.00;100540.19;5096298;28;20023;-76
2023/08/25 07:13:51;;;;;;;20.42;9.82;;;;;;;18.46;100.00;100512.25;5091831;28;20095;-76
2023/08/25 07:16:17;;;;;;;20.70;8.70;;;;;;;18.46;100.00;100512.25;5106066;28;20186;-77
2023/08/25 07:18:42;;;;;;;21.20;9.93;;;;;;;18.47;100.00;100531.13;5089193;28;20027;-77
2023/08/25 07:21:08;;;;;;;21.73;10.63;;;;;;;18.50;100.00;100576.22;5106874;28;20134;-77
2023/08/25 07:23:33;;;;;;;24.80;12.05;;;;;;;18.50;100.00;100655.13;5092720;28;20028;-76
2023/08/25 07:25:59;;;;;;;23.38;9.38;;;;;;;18.47;100.00;100686.25;5101074;28;20015;-77
2023/08/25 07:28:24;;;;;;;23.40;9.75;;;;;;;18.43;100.00;100626.91;5113158;28;20536;-79
2023/08/25 07:30:52;;;;;;;28.65;11.52;;;;;;;18.36;100.00;100576.91;5102415;28;20035;-78
2023/08/25 07:33:18;;;;;;;25.30;10.60;;;;;;;18.34;100.00;100568.91;5077686;22;20040;-74
2023/08/25 07:35:43;;;;;;;23.52;10.27;;;;;;;18.33;100.00;100580.81;5062561;28;20550;-74
2023/08/25 07:38:11;;;;;;;23.85;10.20;;;;;;;18.34;100.00;100612.44;5066614;28;20029;-74
2023/08/25 07:40:37;;;;;;;22.08;9.90;;;;;;;18.33;100.00;100613.44;5062092;28;20113;-73
2023/08/25 07:43:03;;;;;;;22.05;10.55;;;;;;;18.34;100.00;100610.56;5068360;28;20457;-73
2023/08/25 07:45:29;;;;;;;23.50;9.40;;;;;;;18.36;100.00;100604.97;5064446;28;20032;-73
2023/08/25 07:48:01;;;;;;;23.55;10.63;;;;;;;18.30;100.00;100603.78;5065103;28;20428;-73
2023/08/25 07:50:28;;;;;;;23.15;10.57;;;;;;;18.24;100.00;100607.16;5067756;28;20389;-73
2023/08/25 07:52:54;;;;;;;22.73;10.88;;;;;;;18.28;100.00;100602.25;5061284;28;20086;-73
2023/08/25 07:55:20;;;;;;;21.00;9.75;;;;;;;18.28;100.00;100602.25;5058866;28;20095;-73
2023/08/25 07:57:48;;;;;;;23.02;10.63;;;;;;;18.32;100.00;100604.44;5053739;28;20036;-73
2023/08/25 08:00:15;;;;;;;22.58;10.05;;;;;;;18.27;100.00;100603.25;5066078;28;20024;-73
2023/08/25 08:02:49;;;;;;;20.67;9.65;;;;;;;18.29;100.00;100598.50;5062175;28;20028;-73
2023/08/25 08:05:16;;;;;;;21.92;10.13;;;;;;;18.29;100.00;100603.94;5055385;28;20181;-73
2023/08/25 08:07:44;;;;;;;24.52;10.90;;;;;;;18.33;100.00;100616.16;5055875;28;20133;-73
2023/08/25 08:10:10;;;;;;;24.42;11.27;;;;;;;18.30;100.00;100619.22;5052691;28;20500;-73
2023/08/25 08:12:36;;;;;;;21.67;9.90;;;;;;;18.32;100.00;100619.94;5041683;28;20341;-73
2023/08/25 08:15:04;;;;;;;22.42;10.88;;;;;;;18.31;100.00;100608.19;5039792;28;20037;-73
2023/08/25 08:17:30;;;;;;;22.55;11.52;;;;;;;18.33;100.00;100610.72;5040650;28;20026;-73
2023/08/25 08:19:55;;;;;;;22.05;11.55;;;;;;;18.32;100.00;100601.72;5042334;28;20028;-75
2023/08/25 08:22:20;;;;;;;23.42;11.52;;;;;;;18.36;100.00;100587.78;5044030;28;20024;-75
2023/08/25 08:24:50;;;;;;;22.58;11.30;;;;;;;18.33;100.00;100588.97;5047098;28;20079;-75
2023/08/25 08:27:18;;;;;;;22.75;10.45;;;;;;;18.37;100.00;100590.34;5043472;28;20561;-75
2023/08/25 08:29:45;;;;;;;21.27;11.10;;;;;;;18.37;100.00;100601.22;5042162;28;20090;-75
2023/08/25 08:32:12;;;;;;;22.95;10.60;;;;;;;18.33;100.00;100573.50;5038893;28;20042;-76
2023/08/25 08:34:37;;;;;;;22.90;12.40;;;;;;;18.35;100.00;100581.50;5042407;28;20017;-75
2023/08/25 08:37:05;;;;;;;22.58;11.98;;;;;;;18.35;100.00;100603.25;5038623;28;20113;-75
2023/08/25 08:39:33;;;;;;;23.85;13.48;;;;;;;18.35;100.00;100619.59;5039550;28;20021;-75
2023/08/25 08:42:01;;;;;;;25.48;12.27;;;;;;;18.33;100.00;100617.03;5039352;28;20125;-75
2023/08/25 08:44:29;;;;;;;22.10;11.30;;;;;;;18.34;100.00;100612.44;5037910;28;20032;-75
2023/08/25 08:46:56;;;;;;;22.30;12.35;;;;;;;18.30;100.00;100613.78;5038745;28;20037;-75
2023/08/25 08:49:26;;;;;;;22.30;11.50;;;;;;;18.29;100.00;100606.66;5042235;28;20071;-75
2023/08/25 08:51:53;;;;;;;23.55;11.93;;;;;;;18.31;100.00;100618.22;5040133;28;20404;-76
2023/08/25 08:54:19;;;;;;;23.90;12.40;;;;;;;18.31;100.00;100626.38;5036946;28;20020;-75
2023/08/25 08:56:45;;;;;;;21.67;12.18;;;;;;;18.27;100.00;100628.59;5039520;28;20428;-76
2023/08/25 08:59:11;;;;;;;24.30;13.57;;;;;;;18.24;100.00;100622.63;5038657;28;20389;-75
2023/08/25 09:01:38;;;;;;;23.08;13.48;;;;;;;18.23;100.00;100623.66;5040384;28;20074;-75
2023/08/25 09:04:08;;;;;;;23.33;12.63;;;;;;;18.24;100.00;100603.59;5043039;28;20056;-75
2023/08/25 09:06:36;;;;;;;28.23;14.98;;;;;;;18.24;100.00;100590.00;5037702;28;20420;-75
2023/08/25 09:09:05;;;;;;;25.80;14.00;;;;;;;18.23;100.00;100607.31;5041120;28;20473;-75
2023/08/25 09:11:31;;;;;;;24.13;12.93;;;;;;;18.24;100.00;100638.94;5041594;28;20017;-78
2023/08/25 09:13:57;;;;;;;23.20;13.05;;;;;;;18.20;100.00;100643.03;5046372;28;20186;-78
2023/08/25 09:16:24;;;;;;;25.77;15.45;;;;;;;18.20;100.00;100607.66;5045290;28;20075;-78
2023/08/25 09:18:49;;;;;;;26.65;15.50;;;;;;;18.23;100.00;100585.56;5048384;28;20120;-78
2023/08/25 09:21:16;;;;;;;24.38;14.88;;;;;;;18.25;100.00;100569.94;5045056;28;20170;-78
2023/08/25 09:23:59;;;;;;;24.00;14.35;;;;;;;18.32;100.00;100573.69;5050059;28;20025;-78
2023/08/25 09:26:25;;;;;;;26.75;14.80;;;;;;;18.38;100.00;100581.16;5044043;28;20064;-78
2023/08/25 09:28:57;;;;;;;26.02;14.80;;;;;;;18.46;100.00;100605.66;5046309;28;20081;-78
2023/08/25 09:31:24;;;;;;;24.23;14.38;;;;;;;18.49;100.00;100613.47;5043016;28;20029;-77
2023/08/25 09:33:51;;;;;;;27.40;15.32;;;;;;;18.52;100.00;100615.84;5050784;28;20052;-77
2023/08/25 09:36:17;;;;;;;25.73;15.18;;;;;;;18.54;100.00;100609.38;5052300;28;20025;-79
2023/08/25 09:38:44;;;;;;;26.13;15.02;;;;;;;18.58;100.00;100608.88;5053606;28;20056;-80
2023/08/25 09:41:11;;;;;;;25.77;15.40;;;;;;;18.59;100.00;100604.28;5039139;28;20075;-79
2023/08/25 09:43:39;;;;;;;26.45;16.17;;;;;;;18.64;100.00;100596.47;5039953;28;20025;-79
2023/08/25 09:46:08;;;;;;;26.63;14.20;;;;;;;18.65;100.00;100603.59;5042842;28;20156;-78
2023/08/25 09:48:35;;;;;;;25.15;14.18;;;;;;;18.72;100.00;100604.59;5044840;28;20058;-78
2023/08/25 09:51:00;;;;;;;23.65;14.50;;;;;;;18.76;100.00;100613.28;5043467;28;20025;-78
2023/08/25 09:53:31;;;;;;;26.05;15.40;;;;;;;18.83;100.00;100611.59;5033023;28;20091;-78
2023/08/25 09:56:02;;;;;;;26.02;16.35;;;;;;;18.93;100.00;100606.84;5037956;28;20434;-78
2023/08/25 09:58:28;;;;;;;27.08;16.25;;;;;;;18.97;100.00;100602.72;5037479;28;20082;-78
2023/08/25 10:00:54;;;;;;;26.50;15.02;;;;;;;19.03;100.00;100601.16;5039938;28;20415;-78
2023/08/25 10:03:20;;;;;;;25.75;16.20;;;;;;;19.06;100.00;100600.81;5039870;28;20051;-78
2023/08/25 10:05:46;;;;;;;25.25;16.33;;;;;;;19.14;100.00;100598.09;5047759;28;20021;-78
2023/08/25 10:08:16;;;;;;;28.05;16.15;;;;;;;19.23;100.00;100604.34;5040507;28;20036;-79
2023/08/25 10:10:44;;;;;;;24.30;14.60;;;;;;;19.25;100.00;100605.00;5042532;28;20052;-78
2023/08/25 10:13:12;;;;;;;25.27;15.07;;;;;;;19.34;100.00;100597.66;5041170;28;20020;-78
2023/08/25 10:15:40;;;;;;;26.15;15.70;;;;;;;19.41;100.00;100609.56;5044551;28;20059;-78
2023/08/25 10:18:08;;;;;;;27.30;15.90;;;;;;;19.43;100.00;100618.44;5045278;28;20139;-78
2023/08/25 10:20:37;;;;;;;25.63;15.52;;;;;;;19.48;100.00;100618.72;5049769;28;20063;-78
2023/08/25 10:23:08;;;;;;;23.50;14.25;;;;;;;19.54;100.00;100609.00;5038947;28;20040;-83
2023/08/25 10:25:36;;;;;;;25.42;14.32;;;;;;;19.56;100.00;100607.81;5049569;28;20130;-81
2023/08/25 10:28:03;;;;;;;24.20;13.85;;;;;;;19.60;100.00;100618.34;5040031;28;20087;-81
2023/08/25 10:30:29;;;;;;;23.25;13.27;;;;;;;19.63;100.00;100618.00;5029891;28;20039;-82
2023/08/25 10:33:04;;;;;;;25.30;13.88;;;;;;;19.63;100.00;100612.53;5038807;28;20049;-81
2023/08/25 10:35:37;;;;;;;24.70;14.43;;;;;;;19.66;100.00;100620.34;5043883;28;20025;-81
2023/08/25 10:38:02;;;;;;;24.50;14.45;;;;;;;19.68;100.00;100621.88;5043594;28;20144;-81
2023/08/25 10:40:41;;;;;;;27.58;15.15;;;;;;;19.67;100.00;100619.34;5044712;28;20049;-81
2023/08/25 10:43:09;;;;;;;25.23;15.80;;;;;;;19.65;100.00;100626.84;5041154;28;20028;-81
2023/08/25 10:45:35;;;;;;;25.58;15.95;;;;;;;19.60;100.00;100638.28;5038527;28;20024;-80
2023/08/25 10:48:01;;;;;;;24.88;15.30;;;;;;;19.58;100.00;100631.28;5051250;28;20036;-81
2023/08/25 10:50:26;;;;;;;25.67;16.02;;;;;;;19.52;100.00;100622.81;5050141;28;20031;-81
2023/08/25 10:52:52;;;;;;;30.52;17.63;;;;;;;19.50;100.00;100624.88;5045007;28;20025;-81
2023/08/25 10:55:32;;;;;;;23.95;15.18;;;;;;;19.47;100.00;100625.19;5043641;28;20417;-81
2023/08/25 10:58:06;;;;;;;26.80;16.25;;;;;;;19.46;100.00;100623.53;5045665;28;20450;-80
2023/08/25 11:00:34;;;;;;;31.15;16.70;;;;;;;19.45;100.00;100620.97;5050285;28;21065;-81
2023/08/25 11:03:01;;;;;;;26.77;17.08;;;;;;;19.42;100.00;100614.00;5048623;28;20021;-81